Zenica, Bosnia and Herzegovina
Current Conditions -  °F | °C
As of 9:30 AM on Friday 19 Dec 2014 (Local Time) from LQSA Reporting Station
Haze Haze  
Wind Chill: 30°   Ceiling: Unl
Heat Index: 30°   Visibility: 1.2mi
Dew Point: 30°   Wind: 2mph
Humidity: 100%   Direction: NA
Pressure: 30.24"   Gusts: NA
Location:  44.2°N, 17.91°E
Report Text: LQSA 190730Z VRB02KT 2000 BR FEW001 M01/M01 Q1024 BECMG 3000
Loading
Personal Weather Stations






























Interactive Weather Map New forecast layout! Learn more

10-Day Weather Forecast

Advertisements
Track Severe Weather on mobile